createdAt,value
2023-11-05T07:09:19.293Z,94327.13
2023-11-05T07:11:47.215Z,94332.34
2023-11-05T07:14:14.121Z,94358.19
2023-11-05T07:16:41.134Z,94374.91
2023-11-05T07:19:08.107Z,94375.94
2023-11-05T07:21:35.010Z,94383.59
2023-11-05T07:24:02.062Z,94394.84
2023-11-05T07:26:28.977Z,94419.41
2023-11-05T07:28:55.902Z,94418.09
2023-11-05T07:31:23.149Z,94415.19
2023-11-05T07:33:50.262Z,94436.94
2023-11-05T07:36:17.213Z,94445.22
2023-11-05T07:38:44.257Z,94439.94
2023-11-05T07:41:11.197Z,94448.75
2023-11-05T07:43:38.195Z,94455.56
2023-11-05T07:46:05.133Z,94456.69
2023-11-05T07:48:32.014Z,94465.28
2023-11-05T07:50:58.920Z,94482.47
2023-11-05T07:53:25.876Z,94479.47
2023-11-05T07:55:52.727Z,94498.34
2023-11-05T07:58:19.670Z,94504.69
2023-11-05T08:00:46.694Z,94498.34
2023-11-05T08:03:13.638Z,94505.81
2023-11-05T08:05:40.672Z,94494.03
2023-11-05T08:08:07.604Z,94516.09
2023-11-05T08:10:34.557Z,94519.13
2023-11-05T08:13:01.412Z,94526.94
2023-11-05T08:15:28.400Z,94531.25
2023-11-05T08:17:55.413Z,94534.22
2023-11-05T08:20:22.436Z,94541.19
2023-11-05T08:22:49.528Z,94551.03
2023-11-05T08:25:16.762Z,94575.53
2023-11-05T08:27:43.824Z,94595.75
2023-11-05T08:30:10.918Z,94614.59
2023-11-05T08:32:37.880Z,94603.50
2023-11-05T08:35:04.823Z,94611.94
2023-11-05T08:37:31.909Z,94601.94
2023-11-05T08:39:58.921Z,94617.34
2023-11-05T08:42:25.832Z,94618.06
2023-11-05T08:44:52.832Z,94602.66
2023-11-05T08:47:19.747Z,94627.41
2023-11-05T08:49:46.759Z,94637.13
2023-11-05T08:52:13.897Z,94639.59
2023-11-05T08:54:40.870Z,94657.44
2023-11-05T08:57:07.774Z,94652.00
2023-11-05T08:59:34.791Z,94660.88
2023-11-05T09:02:01.791Z,94663.84
2023-11-05T09:04:28.830Z,94662.47
2023-11-05T09:06:55.862Z,94673.81
2023-11-05T09:09:22.764Z,94686.91
2023-11-05T09:11:49.732Z,94677.59
2023-11-05T09:14:16.850Z,94690.13
2023-11-05T09:16:43.612Z,94696.53
2023-11-05T09:19:10.347Z,94691.53
2023-11-05T09:21:37.186Z,94709.50
2023-11-05T09:24:03.873Z,94722.84
2023-11-05T09:26:32.605Z,94741.09
2023-11-05T09:29:00.323Z,94727.84
2023-11-05T09:31:28.335Z,94747.66
2023-11-05T09:33:55.990Z,94732.19
2023-11-05T09:36:22.714Z,94755.91
2023-11-05T09:38:49.413Z,94753.44
2023-11-05T12:55:37.308Z,95158.31
2023-11-05T12:58:04.346Z,95168.34
2023-11-05T13:00:31.495Z,95167.16
2023-11-05T13:02:58.716Z,95162.19
2023-11-05T13:05:26.336Z,95178.63
2023-11-05T13:07:54.478Z,95189.84
2023-11-05T13:10:22.759Z,95188.81
2023-11-05T13:12:49.693Z,95206.72
2023-11-05T13:15:16.681Z,95196.59
2023-11-05T13:17:43.705Z,95208.41
2023-11-05T13:23:09.132Z,95200.69
2023-11-05T13:25:44.152Z,95200.69
2023-11-05T13:28:11.700Z,95202.56
2023-11-05T13:30:46.199Z,95197.66
2023-11-05T14:53:16.582Z,95436.13
2023-11-05T14:55:43.548Z,95434.03
2023-11-05T14:58:10.549Z,95432.06
2023-11-05T15:00:37.358Z,95442.50
2023-11-05T15:03:04.196Z,95443.22
2023-11-05T15:05:31.054Z,95465.25
2023-11-05T15:07:58.222Z,95460.63
2023-11-05T15:10:25.124Z,95474.16
2023-11-05T15:12:51.846Z,95483.13
2023-11-05T15:15:18.708Z,95477.59
2023-11-05T15:17:45.494Z,95483.38
2023-11-05T15:20:12.302Z,95495.97
2023-11-05T15:22:39.117Z,95515.06
2023-11-05T15:25:07.775Z,95516.28
2023-11-05T15:27:34.483Z,95533.22
2023-11-05T15:30:01.297Z,95544.59
2023-11-05T15:32:28.057Z,95547.75
2023-11-05T15:34:54.801Z,95540.00
2023-11-05T15:37:21.540Z,95555.00
2023-11-05T15:39:48.256Z,95559.59
2023-11-05T15:42:15.072Z,95570.94
2023-11-05T15:44:41.865Z,95586.91
2023-11-05T15:47:08.657Z,95585.63
2023-11-05T15:49:35.416Z,95592.13
2023-11-05T15:52:02.231Z,95590.75
2023-11-05T15:54:29.094Z,95596.47
2023-11-05T15:56:55.732Z,95588.75
2023-11-05T15:59:22.734Z,95602.34
2023-11-05T16:01:49.706Z,95599.94
2023-11-05T16:04:16.798Z,95607.75
2023-11-05T16:06:43.994Z,95610.16
2023-11-05T16:09:10.842Z,95618.81
2023-11-05T16:11:37.817Z,95626.31
2023-11-05T16:14:04.931Z,95621.97
2023-11-05T16:16:31.941Z,95628.31
2023-11-05T16:18:59.366Z,95628.75
2023-11-05T16:21:26.422Z,95621.28
2023-11-05T16:23:53.393Z,95629.13
2023-11-05T16:26:20.196Z,95629.97
2023-11-05T16:28:47.209Z,95629.84
2023-11-05T16:31:13.961Z,95616.28
2023-11-05T16:33:40.726Z,95622.34
2023-11-05T16:36:07.714Z,95635.41
2023-11-05T16:38:34.453Z,95638.81
2023-11-05T16:41:01.196Z,95653.09
2023-11-05T16:43:28.048Z,95654.53
2023-11-05T16:45:54.825Z,95668.84
2023-11-05T16:48:21.633Z,95683.84
2023-11-05T16:50:48.587Z,95671.75
2023-11-05T16:53:17.238Z,95649.72
2023-11-05T16:55:44.358Z,95644.88
2023-11-05T16:58:11.221Z,95665.94
2023-11-05T17:00:38.146Z,95681.94
2023-11-05T17:03:04.916Z,95682.69
2023-11-05T17:05:31.933Z,95696.47
2023-11-05T17:07:58.769Z,95716.03
2023-11-05T17:23:49.294Z,95744.53
2023-11-05T17:26:16.207Z,95760.66
2023-11-05T17:28:43.272Z,95779.31
2023-11-05T17:31:10.252Z,95779.06
2023-11-05T17:33:37.979Z,95778.63
2023-11-05T17:36:04.986Z,95782.31
2023-11-05T17:38:31.737Z,95788.47
2023-11-05T17:40:58.507Z,95799.88
2023-11-05T17:43:25.199Z,95795.88
2023-11-05T17:45:52.060Z,95816.13
2023-11-05T17:48:18.921Z,95824.22
2023-11-05T17:50:45.721Z,95830.44
2023-11-05T17:53:12.636Z,95826.50
2023-11-05T17:55:39.397Z,95837.50
2023-11-05T17:58:06.258Z,95838.38
2023-11-05T18:00:33.117Z,95844.44
2023-11-05T18:03:02.905Z,95843.78
2023-11-05T18:05:29.721Z,95851.03
2023-11-05T18:07:56.665Z,95852.34
2023-11-05T18:10:24.195Z,95837.81
2023-11-05T18:12:52.473Z,95850.00
2023-11-05T18:15:19.236Z,95872.75
2023-11-05T18:17:46.038Z,95862.06
2023-11-05T18:20:12.999Z,95871.13
2023-11-05T18:22:39.824Z,95882.94
2023-11-05T18:25:06.596Z,95878.75
2023-11-05T18:27:33.497Z,95870.75
2023-11-05T18:30:00.669Z,95871.69
2023-11-05T18:32:27.629Z,95874.31
2023-11-05T18:34:54.711Z,95879.03
2023-11-05T18:37:21.831Z,95882.44
2023-11-05T18:39:48.829Z,95878.78
2023-11-05T18:42:15.901Z,95881.53
2023-11-05T18:44:42.998Z,95885.78
2023-11-05T18:47:09.878Z,95891.44
2023-11-05T18:49:36.912Z,95891.03
2023-11-05T18:52:03.898Z,95896.06
2023-11-05T18:54:30.887Z,95900.31
2023-11-05T18:56:57.774Z,95902.47
2023-11-05T18:59:24.802Z,95903.97
2023-11-05T19:01:51.732Z,95902.69
2023-11-05T19:04:18.664Z,95900.97
2023-11-05T19:06:45.663Z,95898.88
2023-11-05T19:09:12.533Z,95905.50
2023-11-05T19:11:39.502Z,95914.78
2023-11-05T19:14:13.684Z,95918.47
2023-11-05T19:16:43.160Z,95910.63
2023-11-05T19:19:10.778Z,95918.16
2023-11-05T19:21:37.761Z,95920.16
2023-11-05T19:24:04.666Z,95919.31
2023-11-05T19:26:31.670Z,95928.50
2023-11-05T19:28:58.757Z,95942.00
2023-11-05T19:31:26.106Z,95938.28
2023-11-05T19:33:53.282Z,95953.94
2023-11-05T19:36:20.218Z,95949.50
2023-11-05T19:38:46.889Z,95941.69
2023-11-05T19:41:13.556Z,95944.72
2023-11-05T19:43:40.414Z,95957.31
2023-11-05T19:46:07.149Z,95952.13
2023-11-05T19:48:33.987Z,95960.19
2023-11-05T19:51:01.244Z,95952.16
2023-11-05T19:53:28.971Z,95951.91
2023-11-05T19:55:56.119Z,95954.13
2023-11-05T19:58:22.908Z,95943.53
2023-11-05T20:00:49.700Z,95957.66
2023-11-05T20:03:16.494Z,95970.25
2023-11-05T20:05:43.459Z,95963.75
2023-11-05T20:08:10.389Z,95965.94
2023-11-05T20:10:37.278Z,95965.84
2023-11-05T20:13:04.990Z,95970.19
2023-11-05T20:15:31.770Z,95978.03
2023-11-05T20:17:58.728Z,95984.81
2023-11-05T20:20:25.640Z,95981.63
2023-11-05T20:22:52.574Z,95978.78
2023-11-05T20:25:20.666Z,95980.81
2023-11-05T20:27:47.581Z,95992.88
2023-11-05T20:30:14.370Z,95996.19
2023-11-05T20:32:42.081Z,96001.69
2023-11-05T21:05:18.941Z,96029.59
2023-11-05T21:07:46.007Z,96024.97
2023-11-05T21:10:16.367Z,96033.59
2023-11-05T21:12:44.720Z,96032.78
2023-11-05T21:15:15.183Z,96035.69
2023-11-05T21:17:42.356Z,96038.16
2023-11-05T21:20:09.466Z,96029.28
2023-11-05T21:22:36.560Z,96029.94
2023-11-05T21:25:03.688Z,96036.25
2023-11-05T21:27:30.741Z,96041.44
2023-11-05T21:29:57.702Z,96056.97
2023-11-05T21:32:24.751Z,96046.75
2023-11-05T21:34:52.151Z,96049.91
2023-11-05T21:37:19.421Z,96039.28
2023-11-05T21:39:46.425Z,96043.34
2023-11-05T21:42:13.656Z,96059.28
2023-11-05T21:44:40.816Z,96051.22
2023-11-05T21:47:07.704Z,96061.91
2023-11-05T21:49:34.754Z,96058.97
2023-11-05T21:52:01.675Z,96071.03
2023-11-05T21:54:28.687Z,96070.94
2023-11-05T21:56:55.690Z,96063.41
2023-11-05T21:59:22.668Z,96069.59
2023-11-05T22:01:49.646Z,96058.16
2023-11-05T22:04:16.780Z,96061.44
